createdAt,value
2023-02-13T00:05:56.918Z,-2.97
2023-02-13T00:17:57.341Z,-3.08
2023-02-13T00:29:57.824Z,-2.70
2023-02-13T00:41:58.255Z,-3.07
2023-02-13T00:53:58.684Z,-2.89
2023-02-13T01:05:59.140Z,-3.28
2023-02-13T01:17:59.598Z,-3.54
2023-02-13T01:30:00.002Z,-3.56
2023-02-13T01:42:00.514Z,-3.75
2023-02-13T01:54:00.926Z,-3.50
2023-02-13T02:06:01.396Z,-3.94
2023-02-13T02:18:01.891Z,-3.60
2023-02-13T02:30:02.312Z,-4.00
2023-02-13T02:42:02.767Z,-4.04
2023-02-13T02:54:03.183Z,-4.24
2023-02-13T03:06:03.672Z,-4.16
2023-02-13T03:18:04.119Z,-4.43
2023-02-13T03:30:04.582Z,-4.39
2023-02-13T03:42:05.042Z,-4.54
2023-02-13T03:54:05.456Z,-4.47
2023-02-13T04:06:05.913Z,-4.53
2023-02-13T04:18:06.360Z,-4.52
2023-02-13T04:30:06.798Z,-4.79
2023-02-13T04:42:07.254Z,-4.42
2023-02-13T04:54:07.684Z,-4.71
2023-02-13T05:06:08.178Z,-4.98
2023-02-13T05:18:08.665Z,-4.90
2023-02-13T05:30:09.081Z,-5.01
2023-02-13T05:42:09.565Z,-5.04
2023-02-13T05:54:09.998Z,-5.09
2023-02-13T06:06:10.458Z,-5.13
2023-02-13T06:18:10.882Z,-5.03
2023-02-13T06:30:11.329Z,-5.23
2023-02-13T06:42:11.760Z,-5.06
2023-02-13T06:54:12.204Z,-4.61
2023-02-13T07:06:12.653Z,-4.05
2023-02-13T07:18:13.143Z,-3.96
2023-02-13T07:30:13.569Z,-3.65
2023-02-13T07:42:14.021Z,-3.08
2023-02-13T07:54:14.501Z,-2.23
2023-02-13T08:06:14.955Z,-1.18
2023-02-13T08:18:15.655Z,-0.63
2023-02-13T08:30:15.864Z,-0.30
2023-02-13T08:42:16.499Z,0.08
2023-02-13T08:54:16.703Z,0.93
2023-02-13T09:06:17.180Z,2.15
2023-02-13T09:18:17.671Z,3.58
2023-02-13T09:30:18.110Z,4.82
2023-02-13T09:42:18.563Z,7.87
2023-02-13T09:54:19.029Z,6.75
2023-02-13T10:06:19.446Z,7.01
2023-02-13T10:18:19.911Z,7.12
2023-02-13T10:30:20.342Z,6.94
2023-02-13T10:42:20.795Z,6.97
2023-02-13T10:54:21.297Z,7.25
2023-02-13T11:06:21.734Z,7.13
2023-02-13T11:18:22.146Z,7.99
2023-02-13T11:30:22.599Z,7.54
2023-02-13T11:42:23.098Z,7.36
2023-02-13T11:54:23.526Z,8.02
2023-02-13T12:06:23.954Z,8.15
2023-02-13T12:18:24.443Z,8.93
2023-02-13T12:30:24.945Z,8.83
2023-02-13T12:42:25.358Z,8.44
2023-02-13T12:54:25.783Z,8.14
2023-02-13T13:06:26.305Z,8.14
2023-02-13T13:18:26.730Z,8.69
2023-02-13T13:30:27.296Z,8.42
2023-02-13T13:42:27.576Z,8.16
2023-02-13T13:54:28.049Z,8.01
2023-02-13T14:06:28.551Z,7.69
2023-02-13T14:18:28.990Z,7.78
2023-02-13T14:30:29.439Z,7.57
2023-02-13T14:42:29.866Z,7.67
2023-02-13T14:54:30.371Z,7.79
2023-02-13T15:06:30.828Z,7.37
2023-02-13T15:18:31.283Z,7.29
2023-02-13T15:30:31.745Z,7.16
2023-02-13T15:42:32.104Z,6.98
2023-02-13T15:54:33.066Z,6.64
2023-02-13T16:06:33.013Z,6.43
2023-02-13T16:18:33.560Z,6.02
2023-02-13T16:30:34.167Z,5.62
2023-02-13T16:42:34.482Z,5.34
2023-02-13T16:54:34.854Z,4.98
2023-02-13T17:06:35.307Z,4.66
2023-02-13T17:18:35.791Z,4.12
2023-02-13T17:30:36.253Z,3.82
2023-02-13T17:42:36.707Z,3.36
2023-02-13T17:54:37.123Z,3.28
2023-02-13T18:06:37.597Z,2.64
2023-02-13T18:18:37.999Z,2.33
2023-02-13T18:30:38.453Z,1.83
2023-02-13T18:42:38.944Z,1.36
2023-02-13T18:54:39.357Z,0.96
2023-02-13T19:06:39.840Z,0.51
2023-02-13T19:18:40.260Z,-0.05
2023-02-13T19:30:40.685Z,-0.09
2023-02-13T19:42:41.198Z,-0.37
2023-02-13T19:54:41.606Z,-0.84
2023-02-13T20:06:42.083Z,-0.94
2023-02-13T20:18:42.513Z,-1.05
2023-02-13T20:30:43.128Z,-1.29
2023-02-13T20:42:43.456Z,-0.82
2023-02-13T20:54:43.896Z,-1.21
2023-02-13T21:06:44.351Z,-1.34
2023-02-13T21:18:44.797Z,-1.32
2023-02-13T21:30:45.340Z,-2.02
2023-02-13T21:42:45.660Z,-2.04
2023-02-13T21:54:46.157Z,-2.43
2023-02-13T22:06:46.636Z,-1.96
2023-02-13T22:18:47.036Z,-2.24
2023-02-13T22:30:47.615Z,-2.40
2023-02-13T22:42:47.946Z,-1.88
2023-02-13T22:54:48.431Z,-2.41
2023-02-13T23:06:48.857Z,-2.09
2023-02-13T23:18:49.281Z,-3.07
2023-02-13T23:30:49.775Z,-2.92
2023-02-13T23:42:50.190Z,-2.48
2023-02-13T23:54:50.658Z,-2.38
